sensor_id;sensor_type;location;lat;lon;timestamp;temperature;humidity
5868;DHT22;2960;49.142;7.768;2023-09-19T00:00:34;19.20;72.20
5868;DHT22;2960;49.142;7.768;2023-09-19T00:03:01;19.20;72.30
5868;DHT22;2960;49.142;7.768;2023-09-19T00:05:34;19.20;72.40
5868;DHT22;2960;49.142;7.768;2023-09-19T00:08:04;19.20;72.40
5868;DHT22;2960;49.142;7.768;2023-09-19T00:10:33;19.10;72.40
5868;DHT22;2960;49.142;7.768;2023-09-19T00:13:02;19.10;72.50
5868;DHT22;2960;49.142;7.768;2023-09-19T00:15:38;19.10;72.70
5868;DHT22;2960;49.142;7.768;2023-09-19T00:18:07;19.10;72.90
5868;DHT22;2960;49.142;7.768;2023-09-19T00:20:37;19.10;73.00
5868;DHT22;2960;49.142;7.768;2023-09-19T00:23:05;19.10;73.00
5868;DHT22;2960;49.142;7.768;2023-09-19T00:25:33;19.10;73.90
5868;DHT22;2960;49.142;7.768;2023-09-19T00:28:03;19.10;73.10
5868;DHT22;2960;49.142;7.768;2023-09-19T00:30:31;19.10;73.20
5868;DHT22;2960;49.142;7.768;2023-09-19T00:32:58;19.10;73.30
5868;DHT22;2960;49.142;7.768;2023-09-19T00:35:27;19.10;73.60
5868;DHT22;2960;49.142;7.768;2023-09-19T00:37:56;19.10;73.40
5868;DHT22;2960;49.142;7.768;2023-09-19T00:40:23;19.10;73.50
5868;DHT22;2960;49.142;7.768;2023-09-19T00:42:51;19.10;73.60
5868;DHT22;2960;49.142;7.768;2023-09-19T00:45:19;19.10;73.70
5868;DHT22;2960;49.142;7.768;2023-09-19T00:47:48;19.10;73.80
5868;DHT22;2960;49.142;7.768;2023-09-19T00:50:17;19.10;73.90
5868;DHT22;2960;49.142;7.768;2023-09-19T00:52:47;19.10;74.00
5868;DHT22;2960;49.142;7.768;2023-09-19T00:55:17;19.10;74.00
5868;DHT22;2960;49.142;7.768;2023-09-19T00:57:45;19.10;74.10
5868;DHT22;2960;49.142;7.768;2023-09-19T01:00:15;19.10;74.10
5868;DHT22;2960;49.142;7.768;2023-09-19T01:02:45;19.10;74.10
5868;DHT22;2960;49.142;7.768;2023-09-19T01:05:14;19.10;74.20
5868;DHT22;2960;49.142;7.768;2023-09-19T01:07:41;19.10;74.30
5868;DHT22;2960;49.142;7.768;2023-09-19T01:10:11;19.10;74.30
5868;DHT22;2960;49.142;7.768;2023-09-19T01:13:01;19.10;74.50
5868;DHT22;2960;49.142;7.768;2023-09-19T01:15:40;19.10;74.50
5868;DHT22;2960;49.142;7.768;2023-09-19T01:18:24;19.10;74.60
5868;DHT22;2960;49.142;7.768;2023-09-19T01:21:05;19.10;74.70
5868;DHT22;2960;49.142;7.768;2023-09-19T01:23:51;19.10;74.70
5868;DHT22;2960;49.142;7.768;2023-09-19T01:29:39;19.10;74.90
5868;DHT22;2960;49.142;7.768;2023-09-19T01:32:15;19.10;75.00
5868;DHT22;2960;49.142;7.768;2023-09-19T01:34:48;19.10;75.10
5868;DHT22;2960;49.142;7.768;2023-09-19T01:37:17;19.10;75.10
5868;DHT22;2960;49.142;7.768;2023-09-19T01:39:47;19.10;75.10
5868;DHT22;2960;49.142;7.768;2023-09-19T01:42:24;19.10;75.10
5868;DHT22;2960;49.142;7.768;2023-09-19T01:45:03;19.10;75.20
5868;DHT22;2960;49.142;7.768;2023-09-19T01:47:38;19.10;75.20
5868;DHT22;2960;49.142;7.768;2023-09-19T01:50:16;19.10;75.30
5868;DHT22;2960;49.142;7.768;2023-09-19T01:52:49;19.10;75.30
5868;DHT22;2960;49.142;7.768;2023-09-19T01:55:20;19.10;76.10
5868;DHT22;2960;49.142;7.768;2023-09-19T01:57:54;19.10;75.40
5868;DHT22;2960;49.142;7.768;2023-09-19T02:00:28;19.10;75.40
5868;DHT22;2960;49.142;7.768;2023-09-19T02:02:58;19.10;75.50
5868;DHT22;2960;49.142;7.768;2023-09-19T02:05:26;19.10;75.50
5868;DHT22;2960;49.142;7.768;2023-09-19T02:07:53;19.00;75.40
5868;DHT22;2960;49.142;7.768;2023-09-19T02:10:21;19.00;75.40
5868;DHT22;2960;49.142;7.768;2023-09-19T02:12:49;19.00;75.40
5868;DHT22;2960;49.142;7.768;2023-09-19T02:15:17;19.00;75.40
5868;DHT22;2960;49.142;7.768;2023-09-19T02:17:44;19.00;75.40
5868;DHT22;2960;49.142;7.768;2023-09-19T02:20:13;19.00;75.40
5868;DHT22;2960;49.142;7.768;2023-09-19T02:22:42;19.00;75.30
5868;DHT22;2960;49.142;7.768;2023-09-19T02:25:09;19.00;75.40
5868;DHT22;2960;49.142;7.768;2023-09-19T02:27:39;19.00;75.30
5868;DHT22;2960;49.142;7.768;2023-09-19T02:30:07;19.00;75.40
5868;DHT22;2960;49.142;7.768;2023-09-19T02:32:34;19.00;75.40
5868;DHT22;2960;49.142;7.768;2023-09-19T02:35:06;19.00;75.30
5868;DHT22;2960;49.142;7.768;2023-09-19T02:37:38;19.00;75.40
5868;DHT22;2960;49.142;7.768;2023-09-19T02:40:06;19.00;75.40
5868;DHT22;2960;49.142;7.768;2023-09-19T02:42:44;19.00;75.40
5868;DHT22;2960;49.142;7.768;2023-09-19T02:45:15;19.00;75.40
5868;DHT22;2960;49.142;7.768;2023-09-19T02:47:44;19.00;75.40
5868;DHT22;2960;49.142;7.768;2023-09-19T02:50:13;19.00;75.40
5868;DHT22;2960;49.142;7.768;2023-09-19T02:52:43;19.00;75.50
5868;DHT22;2960;49.142;7.768;2023-09-19T02:55:15;19.00;75.50
5868;DHT22;2960;49.142;7.768;2023-09-19T02:57:48;19.00;75.50
5868;DHT22;2960;49.142;7.768;2023-09-19T03:00:17;19.00;75.50
5868;DHT22;2960;49.142;7.768;2023-09-19T03:02:47;19.00;75.40
5868;DHT22;2960;49.142;7.768;2023-09-19T03:05:15;18.90;75.40
5868;DHT22;2960;49.142;7.768;2023-09-19T03:07:45;18.90;75.40
5868;DHT22;2960;49.142;7.768;2023-09-19T03:10:12;18.90;75.30
5868;DHT22;2960;49.142;7.768;2023-09-19T03:12:41;18.90;75.30
5868;DHT22;2960;49.142;7.768;2023-09-19T03:15:09;18.90;75.30
5868;DHT22;2960;49.142;7.768;2023-09-19T03:17:37;18.90;75.30
5868;DHT22;2960;49.142;7.768;2023-09-19T03:20:05;18.90;75.40
5868;DHT22;2960;49.142;7.768;2023-09-19T03:22:35;18.90;75.40
5868;DHT22;2960;49.142;7.768;2023-09-19T03:25:06;18.80;75.30
5868;DHT22;2960;49.142;7.768;2023-09-19T03:27:34;18.80;75.40
5868;DHT22;2960;49.142;7.768;2023-09-19T03:30:02;18.80;75.40
5868;DHT22;2960;49.142;7.768;2023-09-19T03:32:34;18.80;75.40
5868;DHT22;2960;49.142;7.768;2023-09-19T03:35:02;18.80;75.40
5868;DHT22;2960;49.142;7.768;2023-09-19T03:37:31;18.80;75.40
5868;DHT22;2960;49.142;7.768;2023-09-19T03:39:58;18.80;75.40
5868;DHT22;2960;49.142;7.768;2023-09-19T03:42:31;18.80;75.40
5868;DHT22;2960;49.142;7.768;2023-09-19T03:44:58;18.80;75.30
5868;DHT22;2960;49.142;7.768;2023-09-19T03:47:26;18.80;75.20
5868;DHT22;2960;49.142;7.768;2023-09-19T03:49:53;18.70;75.10
5868;DHT22;2960;49.142;7.768;2023-09-19T03:52:20;18.70;75.00
5868;DHT22;2960;49.142;7.768;2023-09-19T03:54:47;18.70;74.90
5868;DHT22;2960;49.142;7.768;2023-09-19T03:57:14;18.70;74.90
5868;DHT22;2960;49.142;7.768;2023-09-19T03:59:47;18.70;74.80
5868;DHT22;2960;49.142;7.768;2023-09-19T04:02:14;18.60;74.70
5868;DHT22;2960;49.142;7.768;2023-09-19T04:04:47;18.60;74.70
5868;DHT22;2960;49.142;7.768;2023-09-19T04:07:14;18.60;74.70
5868;DHT22;2960;49.142;7.768;2023-09-19T04:09:42;18.60;74.70
5868;DHT22;2960;49.142;7.768;2023-09-19T04:12:09;18.50;74.60
5868;DHT22;2960;49.142;7.768;2023-09-19T04:14:36;18.50;74.60
5868;DHT22;2960;49.142;7.768;2023-09-19T04:17:06;18.50;74.50
5868;DHT22;2960;49.142;7.768;2023-09-19T04:19:33;18.50;74.40
5868;DHT22;2960;49.142;7.768;2023-09-19T04:22:00;18.40;74.40
5868;DHT22;2960;49.142;7.768;2023-09-19T04:24:27;18.40;74.40
5868;DHT22;2960;49.142;7.768;2023-09-19T04:26:54;18.40;75.10
5868;DHT22;2960;49.142;7.768;2023-09-19T04:29:22;18.40;74.40
5868;DHT22;2960;49.142;7.768;2023-09-19T04:31:51;18.40;74.40
5868;DHT22;2960;49.142;7.768;2023-09-19T04:34:19;18.30;74.20
5868;DHT22;2960;49.142;7.768;2023-09-19T04:36:46;18.30;74.20
5868;DHT22;2960;49.142;7.768;2023-09-19T04:39:13;18.30;74.20
5868;DHT22;2960;49.142;7.768;2023-09-19T04:41:40;18.30;74.20
5868;DHT22;2960;49.142;7.768;2023-09-19T04:44:07;18.30;74.20
5868;DHT22;2960;49.142;7.768;2023-09-19T04:46:35;18.30;74.20
5868;DHT22;2960;49.142;7.768;2023-09-19T04:49:02;18.30;74.10
5868;DHT22;2960;49.142;7.768;2023-09-19T04:51:30;18.30;74.10
5868;DHT22;2960;49.142;7.768;2023-09-19T04:54:00;18.20;73.90
5868;DHT22;2960;49.142;7.768;2023-09-19T04:56:27;18.20;74.80
5868;DHT22;2960;49.142;7.768;2023-09-19T04:58:54;18.20;74.00
5868;DHT22;2960;49.142;7.768;2023-09-19T05:01:22;18.20;74.70
5868;DHT22;2960;49.142;7.768;2023-09-19T05:03:49;18.20;73.90
5868;DHT22;2960;49.142;7.768;2023-09-19T05:06:18;18.20;73.90
5868;DHT22;2960;49.142;7.768;2023-09-19T05:08:48;18.20;73.90
5868;DHT22;2960;49.142;7.768;2023-09-19T05:11:17;18.20;74.70
5868;DHT22;2960;49.142;7.768;2023-09-19T05:13:44;18.20;74.00
5868;DHT22;2960;49.142;7.768;2023-09-19T05:16:11;18.20;74.00
5868;DHT22;2960;49.142;7.768;2023-09-19T05:18:38;18.10;73.90
5868;DHT22;2960;49.142;7.768;2023-09-19T05:21:06;18.10;74.00
5868;DHT22;2960;49.142;7.768;2023-09-19T05:23:33;18.10;74.00
5868;DHT22;2960;49.142;7.768;2023-09-19T05:26:04;18.10;74.00
5868;DHT22;2960;49.142;7.768;2023-09-19T05:28:31;18.10;74.00
5868;DHT22;2960;49.142;7.768;2023-09-19T05:31:00;18.10;73.90
5868;DHT22;2960;49.142;7.768;2023-09-19T05:33:28;18.10;73.90
5868;DHT22;2960;49.142;7.768;2023-09-19T05:35:57;18.10;73.90
5868;DHT22;2960;49.142;7.768;2023-09-19T05:38:24;18.10;73.80
5868;DHT22;2960;49.142;7.768;2023-09-19T05:40:53;18.10;73.90
5868;DHT22;2960;49.142;7.768;2023-09-19T05:43:21;18.10;73.80
5868;DHT22;2960;49.142;7.768;2023-09-19T05:45:48;18.10;73.80
5868;DHT22;2960;49.142;7.768;2023-09-19T05:48:17;18.10;73.80
5868;DHT22;2960;49.142;7.768;2023-09-19T05:50:46;18.10;73.80
5868;DHT22;2960;49.142;7.768;2023-09-19T05:53:14;18.10;73.70
5868;DHT22;2960;49.142;7.768;2023-09-19T05:55:44;18.00;73.60
5868;DHT22;2960;49.142;7.768;2023-09-19T05:58:11;18.00;73.60
5868;DHT22;2960;49.142;7.768;2023-09-19T06:00:40;18.00;73.60
5868;DHT22;2960;49.142;7.768;2023-09-19T06:03:10;18.00;73.60
5868;DHT22;2960;49.142;7.768;2023-09-19T06:05:39;18.20;73.80
5868;DHT22;2960;49.142;7.768;2023-09-19T06:08:07;18.00;73.50
5868;DHT22;2960;49.142;7.768;2023-09-19T06:10:35;18.00;73.50
5868;DHT22;2960;49.142;7.768;2023-09-19T06:13:02;18.00;73.50
5868;DHT22;2960;49.142;7.768;2023-09-19T06:15:31;18.10;73.60
5868;DHT22;2960;49.142;7.768;2023-09-19T06:18:03;18.10;73.50
5868;DHT22;2960;49.142;7.768;2023-09-19T06:20:31;18.10;73.30
5868;DHT22;2960;49.142;7.768;2023-09-19T06:22:58;18.10;73.20
5868;DHT22;2960;49.142;7.768;2023-09-19T06:25:27;18.20;73.20
5868;DHT22;2960;49.142;7.768;2023-09-19T06:27:54;18.20;73.00
5868;DHT22;2960;49.142;7.768;2023-09-19T06:30:23;18.20;72.90
5868;DHT22;2960;49.142;7.768;2023-09-19T06:32:56;18.30;73.00
5868;DHT22;2960;49.142;7.768;2023-09-19T06:35:24;18.30;72.90
5868;DHT22;2960;49.142;7.768;2023-09-19T06:37:52;18.40;72.80
5868;DHT22;2960;49.142;7.768;2023-09-19T06:40:19;18.40;72.70
5868;DHT22;2960;49.142;7.768;2023-09-19T06:42:49;18.50;72.70
5868;DHT22;2960;49.142;7.768;2023-09-19T06:45:18;18.50;72.70
5868;DHT22;2960;49.142;7.768;2023-09-19T06:47:48;18.60;72.70
5868;DHT22;2960;49.142;7.768;2023-09-19T06:50:16;18.60;72.50
5868;DHT22;2960;49.142;7.768;2023-09-19T06:52:46;18.70;72.40
5868;DHT22;2960;49.142;7.768;2023-09-19T06:55:15;18.80;72.20
5868;DHT22;2960;49.142;7.768;2023-09-19T06:57:43;18.80;72.00
5868;DHT22;2960;49.142;7.768;2023-09-19T07:00:11;18.80;71.70
5868;DHT22;2960;49.142;7.768;2023-09-19T07:02:44;18.80;71.50
5868;DHT22;2960;49.142;7.768;2023-09-19T07:05:11;18.80;71.50
5868;DHT22;2960;49.142;7.768;2023-09-19T07:07:38;18.80;71.60
5868;DHT22;2960;49.142;7.768;2023-09-19T07:10:08;18.80;71.60
5868;DHT22;2960;49.142;7.768;2023-09-19T07:12:38;18.80;71.60
5868;DHT22;2960;49.142;7.768;2023-09-19T07:15:07;18.80;71.50
5868;DHT22;2960;49.142;7.768;2023-09-19T07:17:35;18.80;71.50
5868;DHT22;2960;49.142;7.768;2023-09-19T07:20:02;18.80;71.30
5868;DHT22;2960;49.142;7.768;2023-09-19T07:22:33;18.80;71.60
5868;DHT22;2960;49.142;7.768;2023-09-19T07:25:00;18.80;71.30
5868;DHT22;2960;49.142;7.768;2023-09-19T07:27:30;18.90;71.30
5868;DHT22;2960;49.142;7.768;2023-09-19T07:29:58;18.90;71.20
5868;DHT22;2960;49.142;7.768;2023-09-19T07:32:25;18.90;71.00
5868;DHT22;2960;49.142;7.768;2023-09-19T07:34:52;18.90;70.90
5868;DHT22;2960;49.142;7.768;2023-09-19T07:37:20;19.00;70.90
5868;DHT22;2960;49.142;7.768;2023-09-19T07:39:47;19.00;70.80
5868;DHT22;2960;49.142;7.768;2023-09-19T07:42:15;19.10;70.90
5868;DHT22;2960;49.142;7.768;2023-09-19T07:44:45;19.10;70.70
5868;DHT22;2960;49.142;7.768;2023-09-19T07:47:15;19.20;70.60
5868;DHT22;2960;49.142;7.768;2023-09-19T07:49:42;19.20;70.20
5868;DHT22;2960;49.142;7.768;2023-09-19T07:52:09;19.30;70.00
5868;DHT22;2960;49.142;7.768;2023-09-19T07:54:37;19.30;69.50
5868;DHT22;2960;49.142;7.768;2023-09-19T07:57:07;19.30;69.40
5868;DHT22;2960;49.142;7.768;2023-09-19T07:59:34;19.30;69.00
5868;DHT22;2960;49.142;7.768;2023-09-19T08:02:03;19.20;68.80
5868;DHT22;2960;49.142;7.768;2023-09-19T08:04:31;19.20;68.80
5868;DHT22;2960;49.142;7.768;2023-09-19T08:06:59;19.10;68.70
5868;DHT22;2960;49.142;7.768;2023-09-19T08:09:29;19.20;68.90
5868;DHT22;2960;49.142;7.768;2023-09-19T08:11:58;19.30;69.00
5868;DHT22;2960;49.142;7.768;2023-09-19T08:14:28;19.30;69.20
5868;DHT22;2960;49.142;7.768;2023-09-19T08:16:56;19.40;68.10
5868;DHT22;2960;49.142;7.768;2023-09-19T08:19:26;19.50;68.10
5868;DHT22;2960;49.142;7.768;2023-09-19T08:21:55;19.70;68.20
5868;DHT22;2960;49.142;7.768;2023-09-19T08:24:24;19.80;67.40
5868;DHT22;2960;49.142;7.768;2023-09-19T08:26:54;20.00;67.40
5868;DHT22;2960;49.142;7.768;2023-09-19T08:29:22;20.10;67.20
5868;DHT22;2960;49.142;7.768;2023-09-19T08:31:53;20.20;67.00
5868;DHT22;2960;49.142;7.768;2023-09-19T08:34:21;20.40;66.90
5868;DHT22;2960;49.142;7.768;2023-09-19T08:36:50;20.50;66.40
5868;DHT22;2960;49.142;7.768;2023-09-19T08:39:18;20.60;66.30
5868;DHT22;2960;49.142;7.768;2023-09-19T08:41:45;20.70;65.20
5868;DHT22;2960;49.142;7.768;2023-09-19T08:44:12;20.70;64.70
5868;DHT22;2960;49.142;7.768;2023-09-19T08:46:41;20.60;64.50
5868;DHT22;2960;49.142;7.768;2023-09-19T08:49:17;20.70;64.70
5868;DHT22;2960;49.142;7.768;2023-09-19T08:51:56;20.60;64.70
5868;DHT22;2960;49.142;7.768;2023-09-19T08:54:36;20.60;64.50
5868;DHT22;2960;49.142;7.768;2023-09-19T08:57:07;20.60;64.10
5868;DHT22;2960;49.142;7.768;2023-09-19T08:59:38;20.60;64.10
5868;DHT22;2960;49.142;7.768;2023-09-19T09:02:11;20.50;64.10
5868;DHT22;2960;49.142;7.768;2023-09-19T09:04:39;20.50;64.10
5868;DHT22;2960;49.142;7.768;2023-09-19T09:07:12;20.50;64.00
5868;DHT22;2960;49.142;7.768;2023-09-19T09:09:40;20.60;64.00
5868;DHT22;2960;49.142;7.768;2023-09-19T09:12:09;20.50;64.40
5868;DHT22;2960;49.142;7.768;2023-09-19T09:14:39;20.50;63.70
5868;DHT22;2960;49.142;7.768;2023-09-19T09:17:07;20.50;63.40
5868;DHT22;2960;49.142;7.768;2023-09-19T09:19:34;20.50;63.30
5868;DHT22;2960;49.142;7.768;2023-09-19T09:22:07;20.60;63.40
5868;DHT22;2960;49.142;7.768;2023-09-19T09:24:36;20.60;63.30
5868;DHT22;2960;49.142;7.768;2023-09-19T09:27:05;20.60;63.20
5868;DHT22;2960;49.142;7.768;2023-09-19T09:29:44;20.70;63.10
5868;DHT22;2960;49.142;7.768;2023-09-19T09:32:19;20.80;63.30
5868;DHT22;2960;49.142;7.768;2023-09-19T09:34:53;20.90;63.40
5868;DHT22;2960;49.142;7.768;2023-09-19T09:37:21;21.00;63.00
5868;DHT22;2960;49.142;7.768;2023-09-19T09:39:52;21.20;62.90
5868;DHT22;2960;49.142;7.768;2023-09-19T09:42:32;21.40;62.80
5868;DHT22;2960;49.142;7.768;2023-09-19T09:45:22;21.50;62.50
5868;DHT22;2960;49.142;7.768;2023-09-19T09:48:03;21.60;62.20
5868;DHT22;2960;49.142;7.768;2023-09-19T09:50:46;21.50;62.00
5868;DHT22;2960;49.142;7.768;2023-09-19T09:53:23;21.60;62.00
5868;DHT22;2960;49.142;7.768;2023-09-19T09:56:01;21.60;62.00
5868;DHT22;2960;49.142;7.768;2023-09-19T09:58:32;21.70;61.90
5868;DHT22;2960;49.142;7.768;2023-09-19T10:01:01;21.80;61.80
5868;DHT22;2960;49.142;7.768;2023-09-19T10:03:35;21.90;61.90
5868;DHT22;2960;49.142;7.768;2023-09-19T10:06:07;21.90;61.50
5868;DHT22;2960;49.142;7.768;2023-09-19T10:09:03;21.90;61.30
5868;DHT22;2960;49.142;7.768;2023-09-19T10:11:42;21.90;60.90
5868;DHT22;2960;49.142;7.768;2023-09-19T10:14:11;21.80;59.80
5868;DHT22;2960;49.142;7.768;2023-09-19T10:16:45;21.70;60.00
5868;DHT22;2960;49.142;7.768;2023-09-19T10:19:17;21.50;59.70
5868;DHT22;2960;49.142;7.768;2023-09-19T10:21:50;21.40;59.60
5868;DHT22;2960;49.142;7.768;2023-09-19T10:24:22;21.30;59.60
5868;DHT22;2960;49.142;7.768;2023-09-19T10:26:52;21.20;59.70
5868;DHT22;2960;49.142;7.768;2023-09-19T10:29:21;21.20;59.70
5868;DHT22;2960;49.142;7.768;2023-09-19T10:31:49;21.10;59.70
5868;DHT22;2960;49.142;7.768;2023-09-19T10:34:20;21.10;59.90
5868;DHT22;2960;49.142;7.768;2023-09-19T10:36:51;21.20;60.20
5868;DHT22;2960;49.142;7.768;2023-09-19T10:39:19;21.30;60.10
5868;DHT22;2960;49.142;7.768;2023-09-19T10:41:52;21.50;59.90
5868;DHT22;2960;49.142;7.768;2023-09-19T10:44:23;21.60;59.90
5868;DHT22;2960;49.142;7.768;2023-09-19T10:46:51;21.60;59.60
5868;DHT22;2960;49.142;7.768;2023-09-19T10:49:20;21.60;59.50
5868;DHT22;2960;49.142;7.768;2023-09-19T10:51:50;21.60;59.60
5868;DHT22;2960;49.142;7.768;2023-09-19T10:54:24;21.60;59.70
5868;DHT22;2960;49.142;7.768;2023-09-19T10:56:56;21.60;59.60
5868;DHT22;2960;49.142;7.768;2023-09-19T10:59:25;21.60;59.60
5868;DHT22;2960;49.142;7.768;2023-09-19T11:02:00;21.70;59.60
5868;DHT22;2960;49.142;7.768;2023-09-19T11:04:42;21.80;59.70
5868;DHT22;2960;49.142;7.768;2023-09-19T11:07:14;21.90;59.60
5868;DHT22;2960;49.142;7.768;2023-09-19T11:09:48;22.00;59.40
5868;DHT22;2960;49.142;7.768;2023-09-19T11:12:51;22.10;59.40
5868;DHT22;2960;49.142;7.768;2023-09-19T11:18:53;22.50;58.70
5868;DHT22;2960;49.142;7.768;2023-09-19T11:21:40;22.80;58.10
5868;DHT22;2960;49.142;7.768;2023-09-19T11:24:28;23.00;58.00
5868;DHT22;2960;49.142;7.768;2023-09-19T11:27:22;23.10;57.60
5868;DHT22;2960;49.142;7.768;2023-09-19T11:30:27;23.20;57.40
5868;DHT22;2960;49.142;7.768;2023-09-19T11:33:18;23.30;57.40
5868;DHT22;2960;49.142;7.768;2023-09-19T11:35:59;23.40;57.20
5868;DHT22;2960;49.142;7.768;2023-09-19T11:38:59;23.40;56.90
5868;DHT22;2960;49.142;7.768;2023-09-19T11:41:38;23.50;56.70
5868;DHT22;2960;49.142;7.768;2023-09-19T11:44:33;23.50;56.40
5868;DHT22;2960;49.142;7.768;2023-09-19T11:47:08;23.60;56.70
5868;DHT22;2960;49.142;7.768;2023-09-19T11:49:40;23.50;56.20
5868;DHT22;2960;49.142;7.768;2023-09-19T11:52:08;23.50;56.30
5868;DHT22;2960;49.142;7.768;2023-09-19T11:54:37;23.60;56.40
5868;DHT22;2960;49.142;7.768;2023-09-19T11:57:07;23.60;56.40
5868;DHT22;2960;49.142;7.768;2023-09-19T11:59:38;23.60;56.30
5868;DHT22;2960;49.142;7.768;2023-09-19T12:02:08;23.60;56.30
5868;DHT22;2960;49.142;7.768;2023-09-19T12:04:39;23.60;56.30
5868;DHT22;2960;49.142;7.768;2023-09-19T12:07:10;23.70;56.30
5868;DHT22;2960;49.142;7.768;2023-09-19T12:09:41;23.80;56.30
5868;DHT22;2960;49.142;7.768;2023-09-19T12:12:10;23.80;56.20
5868;DHT22;2960;49.142;7.768;2023-09-19T12:14:39;23.90;56.10
5868;DHT22;2960;49.142;7.768;2023-09-19T12:17:10;23.90;55.90
5868;DHT22;2960;49.142;7.768;2023-09-19T12:19:49;23.90;55.90
5868;DHT22;2960;49.142;7.768;2023-09-19T12:22:17;23.90;55.90
5868;DHT22;2960;49.142;7.768;2023-09-19T12:24:46;24.00;55.70
5868;DHT22;2960;49.142;7.768;2023-09-19T12:27:13;24.00;55.80
5868;DHT22;2960;49.142;7.768;2023-09-19T12:29:44;24.00;55.60
5868;DHT22;2960;49.142;7.768;2023-09-19T12:32:16;24.00;55.40
5868;DHT22;2960;49.142;7.768;2023-09-19T12:34:51;24.00;55.30
5868;DHT22;2960;49.142;7.768;2023-09-19T12:37:20;24.00;55.10
5868;DHT22;2960;49.142;7.768;2023-09-19T12:39:49;24.00;55.20
5868;DHT22;2960;49.142;7.768;2023-09-19T12:42:22;24.00;54.90
5868;DHT22;2960;49.142;7.768;2023-09-19T12:44:57;24.00;54.80
5868;DHT22;2960;49.142;7.768;2023-09-19T12:47:28;24.10;54.80
5868;DHT22;2960;49.142;7.768;2023-09-19T12:50:11;24.10;54.40
5868;DHT22;2960;49.142;7.768;2023-09-19T12:52:45;24.10;54.30
5868;DHT22;2960;49.142;7.768;2023-09-19T12:55:25;24.10;54.20
5868;DHT22;2960;49.142;7.768;2023-09-19T12:58:08;24.10;54.10
5868;DHT22;2960;49.142;7.768;2023-09-19T13:00:39;24.10;54.10
5868;DHT22;2960;49.142;7.768;2023-09-19T13:03:26;24.10;54.10
5868;DHT22;2960;49.142;7.768;2023-09-19T13:05:58;24.10;53.80
5868;DHT22;2960;49.142;7.768;2023-09-19T13:08:27;24.10;53.70
5868;DHT22;2960;49.142;7.768;2023-09-19T13:11:02;24.20;53.70
5868;DHT22;2960;49.142;7.768;2023-09-19T13:13:37;24.20;53.60
5868;DHT22;2960;49.142;7.768;2023-09-19T13:16:05;24.20;53.70
5868;DHT22;2960;49.142;7.768;2023-09-19T13:18:45;24.20;53.60
5868;DHT22;2960;49.142;7.768;2023-09-19T13:21:14;24.20;53.60
5868;DHT22;2960;49.142;7.768;2023-09-19T13:23:51;24.20;53.70
5868;DHT22;2960;49.142;7.768;2023-09-19T13:26:20;24.20;53.70
5868;DHT22;2960;49.142;7.768;2023-09-19T13:28:48;24.10;53.60
5868;DHT22;2960;49.142;7.768;2023-09-19T13:31:16;24.10;53.80
5868;DHT22;2960;49.142;7.768;2023-09-19T13:33:46;24.10;53.80
5868;DHT22;2960;49.142;7.768;2023-09-19T13:36:15;24.10;53.90
5868;DHT22;2960;49.142;7.768;2023-09-19T13:38:44;24.10;53.90
5868;DHT22;2960;49.142;7.768;2023-09-19T13:41:14;24.00;53.80
5868;DHT22;2960;49.142;7.768;2023-09-19T13:43:41;24.00;53.80
5868;DHT22;2960;49.142;7.768;2023-09-19T13:46:13;24.00;53.80
5868;DHT22;2960;49.142;7.768;2023-09-19T13:48:45;23.90;53.80
5868;DHT22;2960;49.142;7.768;2023-09-19T13:51:12;23.90;54.00
5868;DHT22;2960;49.142;7.768;2023-09-19T13:53:40;23.90;54.00
5868;DHT22;2960;49.142;7.768;2023-09-19T13:56:07;23.80;54.00
5868;DHT22;2960;49.142;7.768;2023-09-19T13:58:34;23.80;54.20
5868;DHT22;2960;49.142;7.768;2023-09-19T14:01:02;23.80;54.20
5868;DHT22;2960;49.142;7.768;2023-09-19T14:03:29;23.80;54.40
5868;DHT22;2960;49.142;7.768;2023-09-19T14:05:58;23.80;54.50
5868;DHT22;2960;49.142;7.768;2023-09-19T14:08:25;23.80;54.40
5868;DHT22;2960;49.142;7.768;2023-09-19T14:10:52;23.90;54.50
5868;DHT22;2960;49.142;7.768;2023-09-19T14:13:19;23.90;54.30
5868;DHT22;2960;49.142;7.768;2023-09-19T14:15:47;23.90;54.30
5868;DHT22;2960;49.142;7.768;2023-09-19T14:18:14;23.80;54.00
5868;DHT22;2960;49.142;7.768;2023-09-19T14:20:41;23.80;54.00
5868;DHT22;2960;49.142;7.768;2023-09-19T14:23:09;23.70;53.80
5868;DHT22;2960;49.142;7.768;2023-09-19T14:25:36;23.70;53.70
5868;DHT22;2960;49.142;7.768;2023-09-19T14:28:04;23.70;53.40
5868;DHT22;2960;49.142;7.768;2023-09-19T14:30:33;23.60;53.50
5868;DHT22;2960;49.142;7.768;2023-09-19T14:33:03;23.60;53.60
5868;DHT22;2960;49.142;7.768;2023-09-19T14:35:30;23.70;53.90
5868;DHT22;2960;49.142;7.768;2023-09-19T14:37:57;23.70;54.00
5868;DHT22;2960;49.142;7.768;2023-09-19T14:40:26;23.70;53.80
5868;DHT22;2960;49.142;7.768;2023-09-19T14:42:53;23.70;53.70
5868;DHT22;2960;49.142;7.768;2023-09-19T14:45:20;23.70;54.20
5868;DHT22;2960;49.142;7.768;2023-09-19T14:47:47;23.70;53.60
5868;DHT22;2960;49.142;7.768;2023-09-19T14:50:14;23.70;53.60
5868;DHT22;2960;49.142;7.768;2023-09-19T14:52:42;23.70;53.70
5868;DHT22;2960;49.142;7.768;2023-09-19T14:55:09;23.70;53.60
5868;DHT22;2960;49.142;7.768;2023-09-19T14:57:41;23.60;53.60
5868;DHT22;2960;49.142;7.768;2023-09-19T15:00:11;23.60;53.70
5868;DHT22;2960;49.142;7.768;2023-09-19T15:02:39;23.60;53.60
5868;DHT22;2960;49.142;7.768;2023-09-19T15:05:07;23.60;53.70
5868;DHT22;2960;49.142;7.768;2023-09-19T15:07:35;23.60;53.60
5868;DHT22;2960;49.142;7.768;2023-09-19T15:10:04;23.50;53.60
5868;DHT22;2960;49.142;7.768;2023-09-19T15:12:35;23.50;53.70
5868;DHT22;2960;49.142;7.768;2023-09-19T15:15:05;23.40;53.70
5868;DHT22;2960;49.142;7.768;2023-09-19T15:17:33;23.40;53.80
5868;DHT22;2960;49.142;7.768;2023-09-19T15:20:02;23.40;53.80
5868;DHT22;2960;49.142;7.768;2023-09-19T15:22:32;23.40;53.80
5868;DHT22;2960;49.142;7.768;2023-09-19T15:25:01;23.40;53.80
5868;DHT22;2960;49.142;7.768;2023-09-19T15:27:29;23.40;53.90
5868;DHT22;2960;49.142;7.768;2023-09-19T15:29:58;23.40;54.00
5868;DHT22;2960;49.142;7.768;2023-09-19T15:32:27;23.40;54.10
5868;DHT22;2960;49.142;7.768;2023-09-19T15:34:54;23.40;54.10
5868;DHT22;2960;49.142;7.768;2023-09-19T15:37:22;23.40;54.20
5868;DHT22;2960;49.142;7.768;2023-09-19T15:39:49;23.40;54.10
5868;DHT22;2960;49.142;7.768;2023-09-19T15:42:17;23.40;54.10
5868;DHT22;2960;49.142;7.768;2023-09-19T15:44:45;23.40;53.90
5868;DHT22;2960;49.142;7.768;2023-09-19T15:47:15;23.40;53.90
5868;DHT22;2960;49.142;7.768;2023-09-19T15:49:43;23.40;53.90
5868;DHT22;2960;49.142;7.768;2023-09-19T15:52:11;23.30;53.70
5868;DHT22;2960;49.142;7.768;2023-09-19T15:54:38;23.30;53.70
5868;DHT22;2960;49.142;7.768;2023-09-19T15:57:09;23.30;53.60
5868;DHT22;2960;49.142;7.768;2023-09-19T15:59:38;23.30;53.60
5868;DHT22;2960;49.142;7.768;2023-09-19T16:02:05;23.30;53.60
5868;DHT22;2960;49.142;7.768;2023-09-19T16:04:33;23.30;53.60
5868;DHT22;2960;49.142;7.768;2023-09-19T16:07:01;23.30;53.70
5868;DHT22;2960;49.142;7.768;2023-09-19T16:09:29;23.30;53.70
5868;DHT22;2960;49.142;7.768;2023-09-19T16:11:56;23.20;53.70
5868;DHT22;2960;49.142;7.768;2023-09-19T16:14:23;23.30;53.70
5868;DHT22;2960;49.142;7.768;2023-09-19T16:16:52;23.20;53.70
5868;DHT22;2960;49.142;7.768;2023-09-19T16:19:20;23.20;53.70
5868;DHT22;2960;49.142;7.768;2023-09-19T16:21:47;23.20;53.70
5868;DHT22;2960;49.142;7.768;2023-09-19T16:24:15;23.20;53.80
5868;DHT22;2960;49.142;7.768;2023-09-19T16:26:43;23.20;53.80
5868;DHT22;2960;49.142;7.768;2023-09-19T16:29:10;23.20;53.90